createdAt,value
2018-02-19T00:00:45.957Z,98.80
2018-02-19T00:01:45.944Z,97.95
2018-02-19T00:02:45.939Z,97.57
2018-02-19T00:03:45.924Z,97.19
2018-02-19T00:04:45.912Z,96.91
2018-02-19T00:05:45.902Z,97.57
2018-02-19T00:06:45.897Z,97.38
2018-02-19T00:07:45.881Z,98.04
2018-02-19T00:08:45.869Z,97.76
2018-02-19T00:09:45.875Z,97.76
2018-02-19T00:10:45.852Z,97.85
2018-02-19T00:11:45.838Z,97.76
2018-02-19T00:12:45.835Z,97.85
2018-02-19T00:13:45.816Z,97.76
2018-02-19T00:14:45.805Z,97.85
2018-02-19T00:15:45.798Z,97.48
2018-02-19T00:16:45.782Z,97.19
2018-02-19T00:17:45.769Z,97.10
2018-02-19T00:18:45.765Z,97.38
2018-02-19T00:19:45.747Z,97.57
2018-02-19T00:20:45.736Z,97.00
2018-02-19T00:21:45.727Z,97.57
2018-02-19T00:22:45.722Z,97.48
2018-02-19T00:23:45.704Z,97.48
2018-02-19T00:24:45.713Z,98.04
2018-02-19T00:25:45.686Z,97.76
2018-02-19T00:26:45.672Z,96.91
2018-02-19T00:27:45.661Z,96.91
2018-02-19T00:28:45.651Z,98.42
2018-02-19T00:29:45.641Z,99.46
2018-02-19T00:30:45.629Z,99.70
2018-02-19T00:31:47.500Z,98.66
2018-02-19T00:32:45.605Z,98.47
2018-02-19T00:33:45.596Z,97.34
2018-02-19T00:34:45.583Z,96.86
2018-02-19T00:35:45.626Z,97.43
2018-02-19T00:36:45.561Z,97.53
2018-02-19T00:37:45.552Z,97.15
2018-02-19T00:38:45.541Z,96.39
2018-02-19T00:39:45.530Z,96.30
2018-02-19T00:40:45.521Z,96.20
2018-02-19T00:41:45.505Z,96.49
2018-02-19T00:42:45.498Z,96.11
2018-02-19T00:43:45.486Z,95.36
2018-02-19T00:44:45.480Z,94.98
2018-02-19T00:45:45.464Z,95.45
2018-02-19T00:46:45.453Z,95.73
2018-02-19T00:47:45.461Z,95.83
2018-02-19T00:48:45.432Z,96.49
2018-02-19T00:49:45.426Z,96.86
2018-02-19T00:50:45.411Z,96.77
2018-02-19T00:51:45.398Z,97.43
2018-02-19T00:52:45.389Z,97.34
2018-02-19T00:53:45.376Z,97.62
2018-02-19T00:54:45.371Z,97.43
2018-02-19T00:55:45.358Z,96.68
2018-02-19T00:56:45.346Z,95.54
2018-02-19T00:57:45.335Z,96.01
2018-02-19T00:58:45.329Z,95.45
2018-02-19T00:59:45.316Z,95.26
2018-02-19T01:00:45.301Z,95.45
2018-02-19T01:01:45.291Z,95.83
2018-02-19T01:02:45.284Z,95.83
2018-02-19T01:03:45.273Z,95.73
2018-02-19T01:04:45.276Z,95.92
2018-02-19T01:05:45.257Z,96.11
2018-02-19T01:06:45.241Z,95.36
2018-02-19T01:07:45.231Z,95.36
2018-02-19T01:08:45.222Z,94.60
2018-02-19T01:09:45.206Z,94.41
2018-02-19T01:10:45.201Z,94.03
2018-02-19T01:11:45.190Z,94.89
2018-02-19T01:12:45.182Z,95.36
2018-02-19T01:13:45.173Z,95.83
2018-02-19T01:14:45.160Z,96.01
2018-02-19T01:15:45.142Z,95.54
2018-02-19T01:16:45.131Z,94.89
2018-02-19T01:17:45.122Z,95.17
2018-02-19T01:18:45.110Z,95.45
2018-02-19T01:19:45.102Z,96.11
2018-02-19T01:20:45.089Z,96.11
2018-02-19T01:21:45.081Z,95.83
2018-02-19T01:22:45.071Z,96.01
2018-02-19T01:23:45.059Z,95.17
2018-02-19T01:24:45.048Z,95.36
2018-02-19T01:25:45.037Z,95.36
2018-02-19T01:26:45.031Z,94.70
2018-02-19T01:27:45.042Z,95.36
2018-02-19T01:28:45.006Z,95.07
2018-02-19T01:29:44.995Z,95.45
2018-02-19T01:30:44.992Z,95.07
2018-02-19T01:31:44.983Z,94.98
2018-02-19T01:32:44.961Z,95.36
2018-02-19T01:33:44.977Z,95.36
2018-02-19T01:34:44.943Z,95.26
2018-02-19T01:35:44.941Z,95.07
2018-02-19T01:36:44.921Z,95.64
2018-02-19T01:37:44.915Z,96.30
2018-02-19T01:38:44.904Z,96.01
2018-02-19T01:39:44.930Z,95.83
2018-02-19T01:40:44.883Z,96.49
2018-02-19T01:41:44.877Z,96.96
2018-02-19T01:42:44.860Z,96.49
2018-02-19T01:43:44.851Z,97.34
2018-02-19T01:44:44.843Z,97.43
2018-02-19T01:45:44.828Z,96.39
2018-02-19T01:46:44.818Z,96.86
2018-02-19T01:47:44.807Z,97.05
2018-02-19T01:48:44.797Z,96.77
2018-02-19T01:49:44.787Z,96.68
2018-02-19T01:50:44.774Z,96.01
2018-02-19T01:51:44.765Z,95.73
2018-02-19T01:52:44.755Z,94.98
2018-02-19T01:53:44.743Z,94.98
2018-02-19T01:54:44.733Z,94.89
2018-02-19T01:55:44.727Z,95.97
2018-02-19T01:56:44.712Z,96.44
2018-02-19T01:57:44.703Z,96.81
2018-02-19T01:58:44.691Z,97.29
2018-02-19T01:59:44.683Z,97.19
2018-02-19T02:00:44.669Z,97.29
2018-02-19T02:01:44.659Z,97.19
2018-02-19T02:02:44.653Z,97.10
2018-02-19T02:03:44.641Z,97.19
2018-02-19T02:04:44.633Z,96.72
2018-02-19T02:05:44.630Z,96.81
2018-02-19T02:06:44.607Z,97.38
2018-02-19T02:07:44.592Z,97.57
2018-02-19T02:08:44.584Z,98.04
2018-02-19T02:09:44.576Z,98.04
2018-02-19T02:10:44.562Z,97.76
2018-02-19T02:11:44.555Z,97.85
2018-02-19T02:12:44.542Z,98.04
2018-02-19T02:13:44.532Z,97.76
2018-02-19T02:14:44.520Z,97.76
2018-02-19T02:15:44.523Z,97.85
2018-02-19T02:16:44.500Z,97.95
2018-02-19T02:17:44.489Z,97.38
2018-02-19T02:18:44.481Z,97.48
2018-02-19T02:19:44.468Z,97.48
2018-02-19T02:20:44.454Z,97.38
2018-02-19T02:21:44.446Z,97.57
2018-02-19T02:22:44.434Z,97.19
2018-02-19T02:23:44.421Z,97.19
2018-02-19T02:24:44.413Z,97.38
2018-02-19T02:25:44.404Z,97.38
2018-02-19T02:26:44.395Z,97.67
2018-02-19T02:27:44.380Z,97.85
2018-02-19T02:28:44.368Z,98.04
2018-02-19T02:29:44.358Z,98.80
2018-02-19T02:30:44.349Z,98.42
2018-02-19T02:31:44.348Z,98.42
2018-02-19T02:32:44.328Z,98.52
2018-02-19T02:33:44.313Z,98.80
2018-02-19T02:34:44.303Z,98.99
2018-02-19T02:35:44.291Z,99.08
2018-02-19T02:36:44.283Z,98.99
2018-02-19T02:37:44.270Z,98.52
2018-02-19T02:38:44.259Z,98.61
2018-02-19T02:39:44.322Z,98.61
2018-02-19T02:40:44.236Z,98.61
2018-02-19T02:41:44.224Z,98.80
2018-02-19T02:42:44.216Z,98.33
2018-02-19T02:43:44.204Z,98.61
2018-02-19T02:44:44.193Z,98.61
2018-02-19T02:45:44.187Z,98.71
2018-02-19T02:46:44.182Z,98.52
2018-02-19T02:47:44.160Z,98.52
2018-02-19T02:48:44.145Z,98.52
2018-02-19T02:49:44.138Z,98.61
2018-02-19T02:50:44.134Z,98.33
2018-02-19T02:51:44.117Z,98.61
2018-02-19T02:52:44.106Z,97.95
2018-02-19T02:53:44.090Z,98.04
2018-02-19T02:54:44.093Z,97.95
2018-02-19T02:55:44.078Z,97.48
2018-02-19T02:56:44.059Z,97.48
2018-02-19T02:57:44.069Z,97.76
2018-02-19T02:58:44.036Z,97.95
2018-02-19T02:59:44.028Z,98.80
2018-02-19T03:00:44.015Z,98.61
2018-02-19T03:01:44.017Z,98.71
2018-02-19T03:02:43.995Z,98.42
2018-02-19T03:03:43.983Z,98.42
2018-02-19T03:04:43.974Z,98.90
2018-02-19T03:05:43.963Z,98.71
2018-02-19T03:06:43.949Z,99.55
2018-02-19T03:07:43.939Z,98.80
2018-02-19T03:08:43.927Z,99.74
2018-02-19T03:09:43.914Z,99.93
2018-02-19T03:10:43.904Z,98.99
2018-02-19T03:11:43.912Z,98.61
2018-02-19T03:12:43.882Z,99.74
2018-02-19T03:13:43.868Z,99.65
2018-02-19T03:14:43.865Z,99.55
2018-02-19T03:15:43.845Z,99.18
2018-02-19T03:16:43.835Z,98.80
2018-02-19T03:17:43.824Z,98.99
2018-02-19T03:18:43.818Z,98.90
2018-02-19T03:19:43.809Z,98.99
2018-02-19T03:20:43.791Z,98.61
2018-02-19T03:21:43.778Z,98.33
2018-02-19T03:22:43.768Z,99.65
2018-02-19T03:23:43.759Z,98.71
2018-02-19T03:24:43.747Z,99.27
2018-02-19T03:25:43.736Z,98.80
2018-02-19T03:26:44.499Z,99.65
2018-02-19T03:27:43.714Z,98.99
2018-02-19T03:28:43.698Z,99.99
2018-02-19T03:29:43.692Z,99.55
2018-02-19T03:30:43.679Z,99.55
2018-02-19T03:31:43.672Z,99.74
2018-02-19T03:32:43.652Z,98.90
2018-02-19T03:33:43.645Z,98.90
2018-02-19T03:34:43.636Z,99.65
2018-02-19T03:35:43.624Z,98.71
2018-02-19T03:36:43.611Z,98.71
2018-02-19T03:37:43.599Z,98.61
2018-02-19T03:38:43.586Z,98.52
2018-02-19T03:39:43.576Z,98.90
2018-02-19T03:40:43.566Z,98.71
2018-02-19T03:41:43.557Z,98.61
2018-02-19T03:42:43.542Z,98.80
2018-02-19T03:43:43.534Z,99.18
2018-02-19T03:44:43.516Z,99.65
2018-02-19T03:45:43.506Z,99.65
2018-02-19T03:46:43.496Z,99.93
2018-02-19T03:47:43.516Z,98.80
2018-02-19T03:48:43.474Z,98.99
2018-02-19T03:49:43.461Z,98.33
2018-02-19T03:50:43.449Z,98.52
2018-02-19T03:51:43.437Z,99.41
2018-02-19T03:52:43.430Z,99.51
2018-02-19T03:53:43.419Z,99.84
2018-02-19T03:54:43.411Z,99.93
2018-02-19T03:55:43.396Z,99.99
2018-02-19T03:56:43.404Z,99.99
2018-02-19T03:57:43.377Z,99.99
2018-02-19T03:58:43.358Z,99.99
2018-02-19T03:59:43.349Z,99.74
2018-02-19T04:00:43.333Z,99.93
2018-02-19T04:01:43.322Z,99.99
2018-02-19T04:02:43.312Z,99.93
2018-02-19T04:03:43.300Z,99.99
2018-02-19T04:04:43.292Z,99.99
2018-02-19T04:05:43.286Z,99.99
2018-02-19T04:06:43.267Z,99.84
2018-02-19T04:07:43.257Z,99.93
2018-02-19T04:08:43.239Z,99.27
2018-02-19T04:09:43.232Z,99.55
2018-02-19T04:10:43.217Z,99.74
2018-02-19T04:11:43.211Z,99.99
2018-02-19T04:12:43.197Z,99.99
2018-02-19T04:13:43.200Z,99.99
2018-02-19T04:14:43.173Z,99.99
2018-02-19T04:15:43.167Z,99.93
2018-02-19T04:16:43.151Z,99.99
2018-02-19T04:17:43.195Z,99.99
2018-02-19T04:18:43.128Z,99.99
2018-02-19T04:19:43.118Z,99.99
2018-02-19T04:20:43.104Z,99.99
2018-02-19T04:21:43.092Z,99.99
2018-02-19T04:22:43.081Z,99.99
2018-02-19T04:23:43.072Z,99.99
2018-02-19T04:24:43.058Z,99.99
2018-02-19T04:25:43.048Z,99.99
2018-02-19T04:26:43.036Z,99.99
2018-02-19T04:27:43.036Z,99.99
2018-02-19T04:28:43.010Z,99.99
2018-02-19T04:29:43.002Z,99.99
2018-02-19T04:30:42.999Z,99.99
2018-02-19T04:31:42.977Z,99.99
2018-02-19T04:32:42.965Z,99.99
2018-02-19T04:33:42.953Z,99.84
2018-02-19T04:34:42.941Z,99.65
2018-02-19T04:35:42.932Z,99.65
2018-02-19T04:36:42.923Z,99.74
2018-02-19T04:37:42.920Z,99.79
2018-02-19T04:38:42.898Z,99.22
2018-02-19T04:39:42.894Z,99.41
2018-02-19T04:40:42.872Z,99.98
2018-02-19T04:41:42.861Z,99.99
2018-02-19T04:42:42.850Z,99.99
2018-02-19T04:43:42.838Z,99.99
2018-02-19T04:44:42.826Z,99.99
2018-02-19T04:45:42.814Z,99.99
2018-02-19T04:46:42.802Z,99.99
2018-02-19T04:47:42.793Z,99.99
2018-02-19T04:48:42.779Z,99.99
2018-02-19T04:49:42.770Z,99.99
2018-02-19T04:50:42.766Z,99.99
2018-02-19T04:51:42.747Z,99.99
2018-02-19T04:52:42.735Z,99.99
2018-02-19T04:53:42.724Z,99.99
2018-02-19T04:54:42.717Z,99.99
2018-02-19T04:55:42.718Z,99.99
2018-02-19T04:56:42.698Z,99.99
2018-02-19T04:57:42.674Z,99.99
2018-02-19T04:58:42.663Z,99.99
2018-02-19T04:59:42.652Z,99.99
2018-02-19T05:00:42.662Z,99.99
2018-02-19T05:01:42.632Z,99.99
2018-02-19T05:02:42.616Z,99.99
2018-02-19T05:03:42.604Z,99.99
2018-02-19T05:04:42.595Z,99.99
2018-02-19T05:05:42.582Z,99.99
2018-02-19T05:06:42.571Z,99.99
2018-02-19T05:07:42.579Z,99.99
2018-02-19T05:08:42.569Z,99.99
2018-02-19T05:09:42.542Z,99.99
2018-02-19T05:10:42.523Z,99.99
2018-02-19T05:11:42.513Z,99.99
2018-02-19T05:12:42.499Z,99.99
2018-02-19T05:13:42.492Z,99.99
2018-02-19T05:14:42.482Z,99.99
2018-02-19T05:15:42.473Z,99.99
2018-02-19T05:16:42.464Z,99.99
2018-02-19T05:17:42.793Z,99.99
2018-02-19T05:18:42.431Z,99.99
2018-02-19T05:19:42.449Z,99.84
2018-02-19T05:20:42.422Z,99.93
2018-02-19T05:21:42.402Z,99.99
2018-02-19T05:22:42.386Z,99.99
2018-02-19T05:23:42.375Z,99.99
2018-02-19T05:24:51.143Z,99.99
2018-02-19T05:26:36.865Z,99.99
2018-02-19T05:27:37.068Z,99.99
2018-02-19T05:29:31.430Z,99.99
2018-02-19T05:30:31.516Z,99.99
2018-02-19T05:32:25.884Z,99.99
2018-02-19T05:33:25.852Z,99.99
2018-02-19T05:35:20.173Z,99.99
2018-02-19T05:36:20.107Z,99.99
2018-02-19T05:38:17.489Z,99.99
2018-02-19T05:39:17.112Z,99.99
2018-02-19T05:40:16.978Z,99.99
2018-02-19T05:41:17.000Z,99.99
2018-02-19T05:42:19.353Z,99.99
2018-02-19T05:43:16.621Z,99.99
2018-02-19T05:44:56.076Z,99.99
2018-02-19T05:45:56.036Z,99.99
2018-02-19T05:47:50.498Z,99.99
2018-02-19T05:48:50.587Z,99.99
2018-02-19T05:50:44.804Z,99.99
2018-02-19T05:51:44.767Z,99.99
2018-02-19T05:53:39.401Z,99.99
2018-02-19T05:54:39.140Z,99.99
2018-02-19T05:56:33.423Z,99.99
2018-02-19T05:57:33.419Z,99.74
2018-02-19T05:59:27.892Z,99.93
2018-02-19T06:00:28.605Z,99.55
2018-02-19T06:02:22.134Z,99.99
2018-02-19T06:03:22.063Z,99.99
2018-02-19T06:04:22.045Z,99.99
2018-02-19T06:05:22.124Z,99.93
2018-02-19T06:06:22.043Z,99.65
2018-02-19T06:07:21.967Z,99.65
2018-02-19T06:08:21.956Z,99.99
2018-02-19T06:09:21.943Z,99.99
2018-02-19T06:10:21.935Z,99.99
2018-02-19T06:11:21.921Z,99.99
2018-02-19T06:12:21.909Z,99.99
2018-02-19T06:13:21.896Z,99.99
2018-02-19T06:14:21.888Z,99.99
2018-02-19T06:15:21.876Z,99.99
2018-02-19T06:16:21.866Z,99.99
2018-02-19T06:17:21.852Z,99.99
2018-02-19T06:18:21.896Z,99.99
2018-02-19T06:19:21.831Z,99.99
2018-02-19T06:20:21.843Z,99.99
2018-02-19T06:21:21.809Z,99.99
2018-02-19T06:22:21.797Z,99.99
2018-02-19T06:25:13.636Z,99.99
2018-02-19T06:26:13.574Z,99.99
2018-02-19T06:28:07.930Z,99.99
2018-02-19T06:29:07.918Z,99.99
2018-02-19T06:31:02.308Z,99.99
2018-02-19T06:32:02.266Z,99.99
2018-02-19T06:33:56.747Z,99.99
2018-02-19T06:34:56.574Z,99.99
2018-02-19T06:36:51.055Z,99.99
2018-02-19T06:37:50.956Z,99.99
2018-02-19T06:39:45.332Z,99.99
2018-02-19T06:40:45.284Z,99.99
2018-02-19T06:42:39.667Z,99.99
2018-02-19T06:43:39.642Z,99.99
2018-02-19T06:45:33.954Z,99.99
2018-02-19T06:46:33.939Z,99.99
2018-02-19T06:48:28.308Z,99.99
2018-02-19T06:49:28.290Z,99.99
2018-02-19T06:51:22.643Z,99.88
2018-02-19T06:52:22.606Z,99.70
2018-02-19T06:54:17.047Z,98.57
2018-02-19T06:55:16.954Z,98.52
2018-02-19T06:57:11.310Z,98.99
2018-02-19T06:58:11.275Z,98.99
2018-02-19T07:00:05.646Z,99.65
2018-02-19T07:01:05.635Z,99.88
2018-02-19T07:02:59.980Z,99.98
2018-02-19T07:03:59.944Z,99.98
2018-02-19T07:05:16.328Z,99.51
2018-02-19T07:06:16.153Z,99.88
2018-02-19T07:08:10.485Z,98.47
2018-02-19T07:09:10.490Z,98.57
2018-02-19T07:11:04.818Z,98.57
2018-02-19T07:12:04.813Z,98.28
2018-02-19T07:13:59.216Z,98.38
2018-02-19T07:14:59.122Z,98.47
2018-02-19T07:15:59.117Z,98.94
2018-02-19T07:16:59.101Z,98.85
2018-02-19T07:17:59.106Z,98.66
2018-02-19T07:18:59.094Z,98.57
2018-02-19T07:19:59.071Z,99.04
2018-02-19T07:20:59.062Z,98.94
2018-02-19T07:21:59.050Z,98.85
2018-02-19T07:22:59.042Z,98.75
2018-02-19T07:23:59.031Z,99.04
2018-02-19T07:24:59.021Z,98.90
2018-02-19T07:25:59.013Z,98.52
2018-02-19T07:26:59.002Z,98.05
2018-02-19T07:27:58.991Z,97.77
2018-02-19T07:28:58.989Z,98.14
2018-02-19T07:29:58.981Z,97.86
2018-02-19T07:30:59.092Z,98.14
2018-02-19T07:31:58.960Z,97.58
2018-02-19T07:32:58.943Z,98.05
2018-02-19T07:33:58.932Z,98.05
2018-02-19T07:34:58.925Z,97.58
2018-02-19T07:35:58.912Z,96.91
2018-02-19T07:36:58.903Z,96.91
2018-02-19T07:37:58.901Z,96.82
2018-02-19T07:38:58.884Z,96.54
2018-02-19T07:39:58.880Z,97.29
2018-02-19T07:40:58.864Z,97.10
2018-02-19T07:41:58.855Z,97.58
2018-02-19T07:42:58.853Z,97.10
2018-02-19T07:43:58.834Z,97.10
2018-02-19T07:44:58.830Z,97.10
2018-02-19T07:45:58.826Z,97.10
2018-02-19T07:46:58.809Z,97.29
2018-02-19T07:47:58.798Z,97.10
2018-02-19T07:48:58.802Z,96.82
2018-02-19T07:49:58.778Z,96.82
2018-02-19T07:50:58.772Z,96.54
2018-02-19T07:51:58.759Z,96.82
2018-02-19T07:52:58.750Z,96.91
2018-02-19T07:53:58.741Z,97.29
2018-02-19T07:54:58.753Z,97.58
2018-02-19T07:55:58.727Z,97.58
2018-02-19T07:56:58.714Z,97.48
2018-02-19T07:57:58.703Z,97.48
2018-02-19T07:58:58.694Z,97.77
2018-02-19T07:59:58.687Z,97.86
2018-02-19T08:00:58.674Z,97.58
2018-02-19T08:01:58.666Z,97.01
2018-02-19T08:02:58.657Z,96.91
2018-02-19T08:03:58.647Z,97.10
2018-02-19T08:04:58.638Z,97.48
2018-02-19T08:05:58.632Z,97.29
2018-02-19T08:06:58.621Z,97.67
2018-02-19T08:07:58.612Z,97.58
2018-02-19T08:08:58.602Z,96.91
2018-02-19T08:09:58.644Z,97.10
2018-02-19T08:10:58.604Z,97.48
2018-02-19T08:11:58.624Z,97.67
2018-02-19T08:13:00.307Z,97.63
2018-02-19T08:13:58.564Z,97.44
2018-02-19T08:14:58.563Z,97.63
2018-02-19T08:15:59.437Z,97.53
2018-02-19T08:16:58.547Z,97.63
2018-02-19T08:17:58.524Z,97.63
2018-02-19T08:18:58.548Z,97.72
2018-02-19T08:20:32.696Z,97.06
2018-02-19T08:22:46.080Z,95.92
2018-02-19T08:23:46.897Z,95.83
2018-02-19T08:32:07.967Z,93.37
2018-02-19T08:32:58.565Z,92.61
2018-02-19T08:58:48.955Z,88.69
2018-02-19T08:59:18.779Z,88.22
2018-02-19T09:10:59.814Z,87.60
2018-02-19T09:23:10.065Z,85.38
2018-02-19T09:24:10.008Z,85.09
2018-02-19T09:26:04.382Z,84.90
2018-02-19T09:27:04.352Z,84.52
2018-02-19T09:28:58.713Z,84.14
2018-02-19T09:29:58.706Z,84.05
2018-02-19T09:31:53.076Z,83.95
2018-02-19T09:32:53.053Z,84.23
2018-02-19T09:34:47.411Z,84.10
2018-02-19T09:35:47.398Z,84.29
2018-02-19T09:37:41.770Z,85.80
2018-02-19T09:38:41.773Z,85.71
2018-02-19T09:40:36.110Z,84.95
2018-02-19T09:41:36.104Z,85.00
2018-02-19T09:43:30.547Z,83.76
2018-02-19T09:44:30.448Z,83.48
2018-02-19T09:46:24.805Z,82.82
2018-02-19T09:47:24.794Z,82.34
2018-02-19T09:49:19.164Z,82.53
2018-02-19T09:50:19.142Z,83.29
2018-02-19T09:52:13.502Z,83.29
2018-02-19T09:53:13.494Z,83.86
2018-02-19T09:55:07.863Z,84.05
2018-02-19T09:56:07.850Z,83.76
2018-02-19T09:58:02.259Z,82.34
2018-02-19T09:59:02.224Z,82.63
2018-02-19T10:00:56.564Z,82.25
2018-02-19T10:01:56.568Z,81.87
2018-02-19T10:03:50.910Z,82.25
2018-02-19T10:04:50.905Z,82.34
2018-02-19T10:06:45.298Z,84.14
2018-02-19T10:07:45.247Z,84.05
2018-02-19T10:09:39.617Z,81.59
2018-02-19T10:10:39.583Z,80.83
2018-02-19T10:12:33.944Z,80.74
2018-02-19T10:13:33.939Z,80.74
2018-02-19T10:15:28.364Z,81.68
2018-02-19T10:16:28.281Z,81.25
2018-02-19T10:18:22.643Z,81.53
2018-02-19T10:19:22.634Z,81.53
2018-02-19T10:21:17.007Z,81.48
2018-02-19T10:22:16.984Z,79.58
2018-02-19T10:24:11.403Z,78.54
2018-02-19T10:25:11.397Z,79.02
2018-02-19T10:27:05.808Z,77.69
2018-02-19T10:28:05.754Z,76.55
2018-02-19T10:30:00.180Z,78.07
2018-02-19T10:31:00.140Z,76.46
2018-02-19T10:32:54.519Z,75.04
2018-02-19T10:33:54.488Z,75.74
2018-02-19T10:35:48.932Z,75.64
2018-02-19T10:36:48.854Z,71.72
2018-02-19T10:38:43.393Z,71.62
2018-02-19T10:39:43.266Z,72.77
2018-02-19T10:41:37.803Z,71.91
2018-02-19T10:42:37.568Z,72.10
2018-02-19T10:44:31.991Z,72.00
2018-02-19T10:45:31.937Z,72.10
2018-02-19T10:47:26.371Z,73.80
2018-02-19T10:48:26.348Z,74.37
2018-02-19T10:50:20.692Z,75.04
2018-02-19T10:51:20.652Z,73.90
2018-02-19T10:53:15.116Z,73.14
2018-02-19T10:54:15.037Z,72.77
2018-02-19T10:56:09.504Z,72.77
2018-02-19T10:57:09.439Z,72.71
2018-02-19T10:59:03.812Z,71.19
2018-02-19T11:00:03.752Z,72.42
2018-02-19T11:01:58.181Z,71.66
2018-02-19T11:02:58.118Z,71.19
2018-02-19T11:04:52.528Z,70.11
2018-02-19T11:05:52.467Z,70.11
2018-02-19T11:07:46.846Z,72.10
2018-02-19T11:08:46.801Z,72.38
2018-02-19T11:10:41.212Z,71.91
2018-02-19T11:11:41.170Z,72.86
2018-02-19T11:13:35.518Z,72.67
2018-02-19T11:14:35.509Z,72.96
2018-02-19T11:16:29.931Z,73.90
2018-02-19T11:17:29.863Z,75.23
2018-02-19T11:19:24.242Z,74.33
2018-02-19T11:20:24.214Z,74.15
2018-02-19T11:22:18.598Z,73.99
2018-02-19T11:23:19.401Z,73.68
2018-02-19T11:25:14.943Z,73.33
2018-02-19T11:26:13.475Z,73.80
2018-02-19T11:28:07.822Z,73.30
2018-02-19T11:29:07.871Z,72.63
2018-02-19T11:31:03.332Z,73.11
2018-02-19T11:32:02.686Z,73.68
2018-02-19T11:33:57.127Z,73.86
2018-02-19T11:34:57.055Z,75.32
2018-02-19T11:36:51.213Z,73.99
2018-02-19T11:37:51.221Z,73.80
2018-02-19T11:39:45.563Z,72.67
2018-02-19T11:40:45.563Z,72.38
2018-02-19T11:42:40.087Z,74.28
2018-02-19T11:43:39.968Z,74.28
2018-02-19T11:45:34.705Z,73.80
2018-02-19T11:46:34.343Z,73.24
2018-02-19T11:48:28.723Z,72.10
2018-02-19T11:49:28.822Z,72.00
2018-02-19T11:51:23.275Z,72.38
2018-02-19T11:52:23.228Z,72.96
2018-02-19T11:54:17.717Z,72.57
2018-02-19T11:55:17.701Z,72.38
2018-02-19T11:57:12.002Z,72.67
2018-02-19T11:58:11.969Z,72.67
2018-02-19T12:00:06.615Z,73.61
2018-02-19T12:01:06.542Z,74.24
2018-02-19T12:03:01.035Z,73.49
2018-02-19T12:04:01.344Z,74.15
2018-02-19T12:05:55.692Z,74.05
2018-02-19T12:06:55.909Z,74.33
2018-02-19T12:08:51.563Z,75.38
2018-02-19T12:09:49.963Z,75.76
2018-02-19T12:11:44.225Z,75.19
2018-02-19T12:12:45.490Z,74.71
2018-02-19T12:14:42.891Z,73.58
2018-02-19T12:15:41.523Z,73.49
2018-02-19T12:16:41.688Z,73.86
2018-02-19T12:18:38.202Z,74.52
2018-02-19T12:19:37.759Z,75.28
2018-02-19T12:21:34.104Z,76.23
2018-02-19T12:22:33.905Z,76.61
2018-02-19T12:24:31.389Z,76.61
2018-02-19T12:25:30.549Z,76.61
2018-02-19T12:27:43.236Z,75.19
2018-02-19T12:28:43.426Z,75.38
2018-02-19T12:30:39.365Z,75.19
2018-02-19T12:31:38.619Z,75.38
2018-02-19T12:32:38.593Z,75.47
2018-02-19T12:33:38.764Z,75.95
2018-02-19T12:34:38.586Z,76.14
2018-02-19T12:35:39.706Z,75.85
2018-02-19T12:36:38.518Z,76.04
2018-02-19T12:38:58.260Z,75.47
2018-02-19T12:41:13.269Z,75.38
2018-02-19T12:42:12.568Z,75.00
2018-02-19T12:44:09.559Z,74.81
2018-02-19T12:45:09.020Z,74.05
2018-02-19T12:47:05.669Z,75.09
2018-02-19T12:48:04.550Z,75.57
2018-02-19T12:50:19.843Z,76.65
2018-02-19T12:51:18.883Z,75.13
2018-02-19T12:53:15.629Z,75.23
2018-02-19T12:54:16.182Z,74.18
2018-02-19T12:56:13.426Z,74.90
2018-02-19T12:57:12.802Z,75.95
2018-02-19T12:59:06.630Z,76.55
2018-02-19T13:00:06.538Z,76.65
2018-02-19T13:02:01.228Z,73.96
2018-02-19T13:03:01.030Z,73.86
2018-02-19T13:04:55.624Z,75.79
2018-02-19T13:05:55.431Z,75.95
2018-02-19T13:07:50.114Z,75.28
2018-02-19T13:08:51.666Z,74.90
2018-02-19T13:10:44.486Z,75.89
2018-02-19T13:11:44.286Z,75.66
2018-02-19T13:13:38.848Z,75.09
2018-02-19T13:14:38.908Z,75.66
2018-02-19T13:16:33.486Z,76.04
2018-02-19T13:17:33.298Z,74.81
2018-02-19T13:19:28.242Z,74.81
2018-02-19T13:20:28.164Z,74.47
2018-02-19T13:22:22.546Z,74.95
2018-02-19T13:23:22.504Z,74.95
2018-02-19T13:25:18.103Z,74.75
2018-02-19T13:26:17.187Z,73.80
2018-02-19T13:28:11.976Z,73.20
2018-02-19T13:29:11.886Z,74.33
2018-02-19T13:31:06.774Z,73.96
2018-02-19T13:32:06.757Z,73.01
2018-02-19T13:34:01.340Z,73.20
2018-02-19T13:35:01.402Z,74.05
2018-02-19T13:36:55.673Z,75.51
2018-02-19T13:37:55.942Z,75.42
2018-02-19T13:39:50.819Z,74.95
2018-02-19T13:40:50.434Z,74.09
2018-02-19T13:42:45.373Z,73.71
2018-02-19T13:43:44.771Z,74.47
2018-02-19T13:45:41.823Z,73.43
2018-02-19T13:46:39.934Z,74.28
2018-02-19T13:48:34.853Z,72.48
2018-02-19T13:49:34.830Z,72.67
2018-02-19T13:51:32.565Z,73.24
2018-02-19T13:52:30.826Z,73.05
2018-02-19T13:53:29.306Z,73.80
2018-02-19T13:54:29.058Z,73.14
2018-02-19T13:55:29.105Z,73.14
2018-02-19T13:56:29.033Z,72.86
2018-02-19T13:57:29.061Z,72.86
2018-02-19T13:58:29.589Z,72.77
2018-02-19T13:59:31.988Z,73.43
2018-02-19T14:00:31.287Z,73.71
2018-02-19T14:01:29.665Z,72.57
2018-02-19T14:02:29.004Z,73.33
2018-02-19T14:03:29.146Z,72.86
2018-02-19T14:04:29.092Z,72.57
2018-02-19T14:05:29.000Z,73.33
2018-02-19T14:06:29.104Z,73.24
2018-02-19T14:07:28.984Z,73.05
2018-02-19T14:08:29.408Z,73.24
2018-02-19T14:09:28.969Z,74.09
2018-02-19T14:10:28.967Z,74.28
2018-02-19T14:11:28.961Z,73.14
2018-02-19T14:12:28.966Z,72.57
2018-02-19T14:13:28.990Z,72.67
2018-02-19T14:14:29.754Z,72.57
2018-02-19T14:15:29.114Z,72.77
2018-02-19T14:16:28.966Z,73.43
2018-02-19T14:17:28.932Z,72.96
2018-02-19T14:18:28.927Z,72.57
2018-02-19T14:19:28.932Z,72.57
2018-02-19T14:20:29.005Z,72.57
2018-02-19T14:21:28.927Z,73.71
2018-02-19T14:22:28.908Z,74.09
2018-02-19T14:23:29.167Z,73.39
2018-02-19T14:24:28.886Z,73.58
2018-02-19T14:25:29.650Z,75.19
2018-02-19T14:26:28.946Z,75.19
2018-02-19T14:27:31.111Z,74.33
2018-02-19T14:28:29.019Z,74.71
2018-02-19T14:29:30.340Z,75.09
2018-02-19T14:30:28.881Z,74.43
2018-02-19T14:31:32.344Z,73.86
2018-02-19T14:32:28.845Z,73.58
2018-02-19T14:33:28.872Z,73.86
2018-02-19T14:34:28.940Z,74.90
2018-02-19T14:35:28.830Z,75.47
2018-02-19T14:36:28.824Z,75.47
2018-02-19T14:37:28.894Z,76.14
2018-02-19T14:38:28.880Z,76.61
2018-02-19T14:39:29.810Z,76.14
2018-02-19T14:40:28.826Z,75.47
2018-02-19T14:41:28.806Z,75.57
2018-02-19T14:42:28.789Z,75.47
2018-02-19T14:43:28.806Z,75.76
2018-02-19T14:44:28.800Z,75.85
2018-02-19T14:45:28.916Z,76.61
2018-02-19T14:46:28.764Z,77.18
2018-02-19T14:47:28.780Z,77.46
2018-02-19T14:48:28.758Z,77.08
2018-02-19T14:49:28.747Z,76.61
2018-02-19T14:50:28.748Z,77.46
2018-02-19T14:51:28.835Z,76.99
2018-02-19T14:52:28.797Z,76.51
2018-02-19T14:53:28.792Z,75.85
2018-02-19T14:54:28.749Z,75.76
2018-02-19T14:55:28.726Z,76.51
2018-02-19T14:56:28.711Z,76.57
2018-02-19T14:57:28.701Z,76.80
2018-02-19T14:58:28.701Z,77.75
2018-02-19T14:59:28.747Z,77.75
2018-02-19T15:00:28.690Z,77.75
2018-02-19T15:01:28.680Z,77.94
2018-02-19T15:02:28.674Z,77.18
2018-02-19T15:03:28.705Z,77.27
2018-02-19T15:04:28.702Z,77.94
2018-02-19T15:05:28.684Z,77.08
2018-02-19T15:06:28.648Z,77.56
2018-02-19T15:07:28.662Z,77.94
2018-02-19T15:08:28.702Z,77.33
2018-02-19T15:09:28.677Z,77.51
2018-02-19T15:10:28.650Z,77.70
2018-02-19T15:11:28.628Z,77.14
2018-02-19T15:12:28.646Z,77.33
2018-02-19T15:13:28.658Z,77.99
2018-02-19T15:14:28.661Z,77.89
2018-02-19T15:15:28.631Z,78.08
2018-02-19T15:16:28.584Z,78.08
2018-02-19T15:17:28.584Z,77.70
2018-02-19T15:18:28.585Z,77.33
2018-02-19T15:19:28.586Z,77.89
2018-02-19T15:20:28.562Z,77.61
2018-02-19T15:21:28.586Z,77.89
2018-02-19T15:22:28.549Z,78.37
2018-02-19T15:23:28.575Z,78.75
2018-02-19T15:24:28.567Z,79.32
2018-02-19T15:25:28.587Z,79.32
2018-02-19T15:26:28.535Z,79.13
2018-02-19T15:27:28.543Z,79.32
2018-02-19T15:28:28.550Z,79.03
2018-02-19T15:29:28.558Z,80.07
2018-02-19T15:30:28.599Z,80.26
2018-02-19T15:31:28.599Z,81.21
2018-02-19T15:32:28.483Z,81.77
2018-02-19T15:33:28.483Z,81.59
2018-02-19T15:34:28.489Z,81.02
2018-02-19T15:35:28.464Z,81.96
2018-02-19T15:36:28.460Z,81.30
2018-02-19T15:37:28.472Z,81.40
2018-02-19T15:38:28.456Z,81.30